createdAt,value
2019-04-28T00:00:02.049Z,2.00
2019-04-28T00:02:32.182Z,1.90
2019-04-28T00:05:02.583Z,2.13
2019-04-28T00:07:32.882Z,2.40
2019-04-28T00:10:04.846Z,1.83
2019-04-28T00:12:35.848Z,1.67
2019-04-28T00:15:08.470Z,2.10
2019-04-28T00:17:38.589Z,1.97
2019-04-28T00:20:12.808Z,2.20
2019-04-28T00:22:51.557Z,4.13
2019-04-28T00:25:25.147Z,3.67
2019-04-28T00:27:56.543Z,2.27
2019-04-28T00:30:26.897Z,2.33
2019-04-28T00:32:58.136Z,4.10
2019-04-28T00:35:28.414Z,2.50
2019-04-28T00:37:59.271Z,4.60
2019-04-28T00:40:31.651Z,3.83
2019-04-28T00:43:01.843Z,2.87
2019-04-28T00:45:32.022Z,3.83
2019-04-28T00:48:02.157Z,4.43
2019-04-28T00:50:33.773Z,3.30
2019-04-28T00:53:03.863Z,3.27
2019-04-28T00:55:35.025Z,3.70
2019-04-28T00:58:06.010Z,3.30
2019-04-28T01:00:37.834Z,5.93
2019-04-28T01:03:07.821Z,4.00
2019-04-28T01:05:37.727Z,3.87
2019-04-28T01:08:07.855Z,5.13
2019-04-28T01:10:37.921Z,7.30
2019-04-28T01:13:09.408Z,6.07
2019-04-28T01:15:59.390Z,4.83
2019-04-28T01:18:43.184Z,9.23
2019-04-28T01:21:14.453Z,8.33
2019-04-28T01:23:45.178Z,3.40
2019-04-28T01:26:15.351Z,4.00
2019-04-28T01:28:45.347Z,3.37
2019-04-28T01:31:36.144Z,3.50
2019-04-28T01:34:20.619Z,3.30
2019-04-28T01:36:51.671Z,4.17
2019-04-28T01:39:21.882Z,5.07
2019-04-28T01:41:53.648Z,4.00
2019-04-28T01:44:23.740Z,5.17
2019-04-28T01:46:56.875Z,4.20
2019-04-28T01:49:26.851Z,4.40
2019-04-28T01:52:01.443Z,4.50
2019-04-28T01:54:31.614Z,5.27
2019-04-28T01:57:01.664Z,4.50
2019-04-28T01:59:32.170Z,4.40
2019-04-28T02:02:02.568Z,4.00
2019-04-28T02:04:32.980Z,3.60
2019-04-28T02:07:05.930Z,4.07
2019-04-28T02:09:39.481Z,4.47
2019-04-28T02:12:11.029Z,4.10
2019-04-28T02:14:43.208Z,3.60
2019-04-28T02:17:17.089Z,3.93
2019-04-28T02:19:47.107Z,5.33
2019-04-28T02:22:30.146Z,4.20
2019-04-28T02:25:00.380Z,4.80
2019-04-28T02:27:33.471Z,3.83
2019-04-28T02:30:05.074Z,3.77
2019-04-28T02:32:35.125Z,4.70
2019-04-28T02:35:05.593Z,3.13
2019-04-28T02:37:35.456Z,4.20
2019-04-28T02:40:06.197Z,3.60
2019-04-28T02:42:37.220Z,3.80
2019-04-28T02:45:07.947Z,4.00
2019-04-28T02:47:37.918Z,3.13
2019-04-28T02:50:21.074Z,4.43
2019-04-28T02:53:08.200Z,5.73
2019-04-28T02:55:41.226Z,2.80
2019-04-28T02:58:13.386Z,2.80
2019-04-28T03:01:00.377Z,2.93
2019-04-28T03:03:14.968Z,6.43
2019-04-28T03:05:45.638Z,4.50
2019-04-28T03:08:15.796Z,2.83
2019-04-28T03:10:45.821Z,3.90
2019-04-28T03:13:20.643Z,2.73
2019-04-28T03:15:51.671Z,3.40
2019-04-28T03:18:21.663Z,3.97
2019-04-28T03:20:53.042Z,3.27
2019-04-28T03:23:23.000Z,3.10
2019-04-28T03:26:11.831Z,5.00
2019-04-28T03:28:57.121Z,3.27
2019-04-28T03:32:07.613Z,3.87
2019-04-28T03:34:13.013Z,5.43
2019-04-28T03:36:41.989Z,3.33
2019-04-28T03:39:14.058Z,3.80
2019-04-28T03:46:51.929Z,3.67
2019-04-28T03:49:34.852Z,2.93
2019-04-28T03:52:06.155Z,5.23
2019-04-28T03:54:36.259Z,3.50
2019-04-28T03:57:06.808Z,5.90
2019-04-28T03:59:41.266Z,4.80
2019-04-28T04:02:11.709Z,4.30
2019-04-28T04:04:41.897Z,4.80
2019-04-28T04:07:12.006Z,4.67
2019-04-28T04:09:51.194Z,8.00
2019-04-28T04:12:30.908Z,4.50
2019-04-28T04:15:11.248Z,4.20
2019-04-28T04:17:54.245Z,5.50
2019-04-28T04:20:26.843Z,6.17
2019-04-28T04:23:01.439Z,5.53
2019-04-28T04:25:32.065Z,7.53
2019-04-28T04:28:03.786Z,10.23
2019-04-28T04:30:33.962Z,7.50
2019-04-28T04:33:04.219Z,6.73
2019-04-28T04:35:34.227Z,6.50
2019-04-28T04:38:04.846Z,4.60
2019-04-28T04:40:34.840Z,7.23
2019-04-28T04:43:05.532Z,6.17
2019-04-28T04:45:35.641Z,6.43
2019-04-28T04:48:05.943Z,6.90
2019-04-28T04:50:36.784Z,6.30
2019-04-28T04:53:06.866Z,7.97
2019-04-28T04:55:40.570Z,6.30
2019-04-28T04:58:12.808Z,5.80
2019-04-28T05:00:53.526Z,8.10
2019-04-28T05:03:27.069Z,5.00
2019-04-28T05:06:00.112Z,5.97
2019-04-28T05:08:30.313Z,4.30
2019-04-28T05:11:00.879Z,7.97
2019-04-28T05:13:31.084Z,7.17
2019-04-28T05:16:01.166Z,5.80
2019-04-28T05:18:31.443Z,7.23
2019-04-28T05:21:01.440Z,10.13
2019-04-28T05:23:41.354Z,5.70
2019-04-28T05:26:11.527Z,4.50
2019-04-28T05:28:50.425Z,6.40
2019-04-28T05:31:22.922Z,6.00
2019-04-28T05:33:45.872Z,7.13
2019-04-28T05:36:16.060Z,4.37
2019-04-28T05:38:46.086Z,4.83
2019-04-28T05:41:16.295Z,4.10
2019-04-28T05:43:46.299Z,4.63
2019-04-28T05:46:16.336Z,4.87
2019-04-28T05:48:57.247Z,4.77
2019-04-28T05:51:30.052Z,4.97
2019-04-28T05:54:09.846Z,4.90
2019-04-28T05:56:45.272Z,6.13
2019-04-28T05:59:21.325Z,8.10
2019-04-28T06:02:05.555Z,5.17
2019-04-28T06:04:37.202Z,8.73
2019-04-28T06:07:30.487Z,5.47
2019-04-28T06:10:00.473Z,7.93
2019-04-28T06:12:31.970Z,4.70
2019-04-28T06:15:02.807Z,6.47
2019-04-28T06:17:32.887Z,4.03
2019-04-28T06:20:04.983Z,6.50
2019-04-28T06:22:36.392Z,6.47
2019-04-28T06:25:08.150Z,7.03
2019-04-28T06:27:38.070Z,3.53
2019-04-28T06:30:08.933Z,6.83
2019-04-28T06:32:40.064Z,7.80
2019-04-28T06:35:11.399Z,5.20
2019-04-28T06:37:41.931Z,5.10
2019-04-28T06:40:12.260Z,8.90
2019-04-28T06:42:42.333Z,7.87
2019-04-28T06:45:15.275Z,5.23
2019-04-28T06:47:45.610Z,5.60
2019-04-28T06:50:19.729Z,6.57
2019-04-28T06:52:49.809Z,7.13
2019-04-28T06:55:19.781Z,5.97
2019-04-28T06:57:49.773Z,6.43
2019-04-28T07:00:23.524Z,6.90
2019-04-28T07:02:55.264Z,5.60
2019-04-28T07:05:26.673Z,5.53
2019-04-28T07:07:59.637Z,6.77
2019-04-28T07:10:29.739Z,9.30
2019-04-28T07:12:59.647Z,6.30
2019-04-28T07:15:29.829Z,9.10
2019-04-28T07:18:00.000Z,5.70
2019-04-28T07:20:47.723Z,6.73
2019-04-28T07:23:18.353Z,7.97
2019-04-28T07:25:49.154Z,9.03
2019-04-28T07:28:21.166Z,4.80
2019-04-28T07:30:51.662Z,5.37
2019-04-28T07:33:21.680Z,8.00
2019-04-28T07:35:52.459Z,5.00
2019-04-28T07:38:22.735Z,6.50
2019-04-28T07:40:55.704Z,6.10
2019-04-28T07:43:31.406Z,12.50
2019-04-28T07:46:03.946Z,9.20
2019-04-28T07:48:35.075Z,7.27
2019-04-28T07:52:22.659Z,5.53
2019-04-28T07:54:53.103Z,6.30
2019-04-28T07:57:25.650Z,9.10
2019-04-28T07:59:55.756Z,9.07
2019-04-28T08:02:26.806Z,7.43
2019-04-28T08:04:57.382Z,9.10
2019-04-28T08:07:28.699Z,11.13
2019-04-28T08:09:59.481Z,8.90
2019-04-28T08:12:30.387Z,8.97
2019-04-28T08:15:00.889Z,11.23
2019-04-28T08:17:36.239Z,11.13
2019-04-28T08:20:08.716Z,11.30
2019-04-28T08:22:43.901Z,7.97
2019-04-28T08:25:16.572Z,12.13
2019-04-28T08:27:47.696Z,11.23
2019-04-28T08:30:18.238Z,8.20
2019-04-28T08:32:58.509Z,8.73
2019-04-28T08:35:29.422Z,9.80
2019-04-28T08:38:00.374Z,11.07
2019-04-28T08:40:31.078Z,11.20
2019-04-28T08:43:12.834Z,9.67
2019-04-28T08:45:45.505Z,9.57
2019-04-28T08:48:20.223Z,7.60
2019-04-28T08:50:54.751Z,6.67
2019-04-28T08:53:25.661Z,10.57
2019-04-28T08:55:58.873Z,11.23
2019-04-28T08:58:30.120Z,8.97
2019-04-28T09:01:03.115Z,12.07
2019-04-28T09:03:35.332Z,10.83
2019-04-28T09:06:07.146Z,7.97
2019-04-28T09:08:38.765Z,9.67
2019-04-28T09:11:15.400Z,13.40
2019-04-28T09:13:49.375Z,10.97
2019-04-28T09:16:20.658Z,12.10
2019-04-28T09:18:51.560Z,9.83
2019-04-28T09:21:26.562Z,10.17
2019-04-28T09:23:58.521Z,8.63
2019-04-28T09:26:29.031Z,10.97
2019-04-28T09:28:59.737Z,9.93
2019-04-28T09:31:31.477Z,10.00
2019-04-28T09:34:02.598Z,8.40
2019-04-28T09:36:40.763Z,8.23
2019-04-28T09:39:15.975Z,11.67
2019-04-28T09:42:08.345Z,9.10
2019-04-28T09:44:38.752Z,15.47
2019-04-28T09:47:09.936Z,9.00
2019-04-28T09:49:44.582Z,10.63
2019-04-28T09:52:15.259Z,10.27
2019-04-28T09:54:48.529Z,13.03
2019-04-28T09:57:20.560Z,11.60
2019-04-28T09:59:51.477Z,8.50
2019-04-28T10:02:22.820Z,11.17
2019-04-28T10:04:55.892Z,10.00
2019-04-28T10:07:26.860Z,11.30
2019-04-28T10:09:57.450Z,8.00
2019-04-28T10:12:28.197Z,11.30
2019-04-28T10:15:01.371Z,9.87
2019-04-28T10:17:32.020Z,14.77
2019-04-28T10:22:34.834Z,8.03
2019-04-28T10:25:10.663Z,12.00
2019-04-28T10:27:44.426Z,9.17
2019-04-28T10:30:24.422Z,12.07
2019-04-28T10:32:57.843Z,15.20
2019-04-28T10:35:29.882Z,9.77
2019-04-28T10:38:04.192Z,8.03
2019-04-28T10:40:51.591Z,12.93
2019-04-28T10:43:24.010Z,5.87
2019-04-28T10:45:58.173Z,8.40
2019-04-28T10:48:29.965Z,11.43
2019-04-28T10:51:02.911Z,8.03
2019-04-28T10:53:33.828Z,9.00
2019-04-28T10:56:06.318Z,8.97
2019-04-28T10:58:39.424Z,9.77
2019-04-28T11:01:13.138Z,8.00
2019-04-28T11:03:45.553Z,10.43
2019-04-28T11:06:18.140Z,8.13
2019-04-28T11:09:05.562Z,7.90
2019-04-28T11:11:39.711Z,8.73
2019-04-28T11:14:10.633Z,6.37
2019-04-28T11:16:43.476Z,12.37
2019-04-28T11:19:14.270Z,8.80
2019-04-28T11:21:45.072Z,9.93
2019-04-28T11:24:19.504Z,6.07
2019-04-28T11:26:52.540Z,9.20
2019-04-28T11:29:25.521Z,6.53
2019-04-28T11:32:11.259Z,5.07
2019-04-28T11:35:03.635Z,12.87
2019-04-28T11:37:34.402Z,7.47
2019-04-28T11:40:09.965Z,4.60
2019-04-28T11:42:41.519Z,6.93
2019-04-28T11:45:18.797Z,7.90
2019-04-28T11:47:51.732Z,7.50
2019-04-28T11:50:39.296Z,9.20
2019-04-28T11:53:12.663Z,8.53
2019-04-28T11:55:43.852Z,6.53
2019-04-28T11:58:19.474Z,6.03
2019-04-28T12:00:56.698Z,8.30
2019-04-28T12:03:32.874Z,8.30
2019-04-28T12:06:07.016Z,7.00
2019-04-28T12:08:37.299Z,4.20
2019-04-28T12:11:38.697Z,7.60
2019-04-28T12:14:26.003Z,4.30
2019-04-28T12:17:14.635Z,11.43
2019-04-28T12:20:07.030Z,8.90
2019-04-28T12:22:37.547Z,7.77
2019-04-28T12:25:08.473Z,7.23
2019-04-28T12:27:39.289Z,7.43
2019-04-28T12:30:09.886Z,4.67
2019-04-28T12:32:39.976Z,5.57
2019-04-28T12:35:10.842Z,6.73
2019-04-28T12:37:41.252Z,7.23
2019-04-28T12:40:14.000Z,9.63
2019-04-28T12:42:44.984Z,10.63
2019-04-28T12:45:16.846Z,12.73
2019-04-28T12:47:46.898Z,9.03
2019-04-28T12:50:26.676Z,8.93
2019-04-28T12:52:56.859Z,12.93
2019-04-28T12:55:29.531Z,9.20
2019-04-28T12:57:59.942Z,10.07
2019-04-28T13:03:39.884Z,9.83
2019-04-28T13:06:13.125Z,7.27
2019-04-28T13:08:49.223Z,9.53
2019-04-28T13:11:20.217Z,9.63
2019-04-28T13:13:53.664Z,10.00
2019-04-28T13:16:23.833Z,8.27
2019-04-28T13:18:53.973Z,8.97
2019-04-28T13:21:24.410Z,7.27
2019-04-28T13:23:57.487Z,10.13
2019-04-28T13:26:28.186Z,9.23
2019-04-28T13:28:58.174Z,7.70
2019-04-28T13:31:28.154Z,11.27
2019-04-28T13:34:00.154Z,8.00
2019-04-28T13:36:33.103Z,7.23
2019-04-28T13:39:05.220Z,9.70
2019-04-28T13:41:37.385Z,6.90
2019-04-28T13:44:12.653Z,7.40
2019-04-28T13:46:42.896Z,9.00
2019-04-28T13:49:16.922Z,10.10
2019-04-28T13:51:47.921Z,9.77
2019-04-28T13:54:22.588Z,16.80
2019-04-28T13:56:57.503Z,10.20
2019-04-28T13:59:28.465Z,10.00
2019-04-28T14:02:23.006Z,12.33
2019-04-28T14:07:48.498Z,9.23
2019-04-28T14:10:21.391Z,11.43
2019-04-28T14:12:52.616Z,9.17
2019-04-28T14:15:23.102Z,8.70
2019-04-28T14:17:53.654Z,8.27
2019-04-28T14:20:24.655Z,8.60
2019-04-28T14:22:55.922Z,10.27
2019-04-28T14:25:26.787Z,11.33
2019-04-28T14:27:57.287Z,9.70
2019-04-28T14:30:27.323Z,9.47
2019-04-28T14:32:58.030Z,7.00
2019-04-28T14:35:28.134Z,5.53
2019-04-28T14:37:58.830Z,6.10
2019-04-28T14:40:29.203Z,6.60
2019-04-28T14:43:04.367Z,7.03
2019-04-28T14:45:35.523Z,8.03
2019-04-28T14:48:06.114Z,7.73
